Time,TemperatureF,DewpointF,PressureIn,WindDirection,WindDirectionDegrees,WindSpeedMPH,WindSpeedGustMPH,Humidity,HourlyPrecipIn,Conditions,Clouds,dailyrainin,SoftwareType,DateUTC
2013-06-28 00:00:00,57.8,57.8,29.96,SSW,213,0.0,0.0,100,0.00,,,0.00,Wunderground v.1.12,2013-06-28 07:00:00,
2013-06-28 00:10:00,57.6,57.6,29.96,SSW,213,0.0,0.0,100,0.00,,,0.00,Wunderground v.1.12,2013-06-28 07:10:00,
2013-06-28 00:20:00,57.6,57.6,29.96,SSW,213,0.0,0.0,100,0.00,,,0.00,Wunderground v.1.12,2013-06-28 07:20:00,
2013-06-28 00:30:00,57.3,57.3,29.96,SW,214,0.0,0.0,100,0.00,,,0.00,Wunderground v.1.12,2013-06-28 07:30:00,
2013-06-28 00:40:00,57.0,57.0,29.95,SSW,213,0.0,0.0,100,0.00,,,0.00,Wunderground v.1.12,2013-06-28 07:40:00,
2013-06-28 00:50:00,56.7,56.7,29.95,SSW,213,0.0,0.0,100,0.00,,,0.00,Wunderground v.1.12,2013-06-28 07:50:00,
2013-06-28 01:00:00,56.9,56.9,29.95,SSW,213,0.0,0.0,100,0.00,,,0.00,Wunderground v.1.12,2013-06-28 08:00:00,
2013-06-28 01:10:00,56.6,56.6,29.95,SSW,213,0.0,0.0,100,0.00,,,0.00,Wunderground v.1.12,2013-06-28 08:10:00,
2013-06-28 01:20:00,56.5,56.5,29.95,SW,214,0.0,0.0,100,0.00,,,0.00,Wunderground v.1.12,2013-06-28 08:20:00,
2013-06-28 01:30:00,56.5,56.5,29.95,SSW,213,0.0,0.0,100,0.00,,,0.00,Wunderground v.1.12,2013-06-28 08:30:00,
2013-06-28 01:40:00,56.2,56.2,29.95,SSW,213,0.0,0.0,100,0.00,,,0.00,Wunderground v.1.12,2013-06-28 08:40:00,
2013-06-28 01:50:00,56.0,56.0,29.94,SSW,213,0.0,0.0,100,0.00,,,0.00,Wunderground v.1.12,2013-06-28 08:50:00,
2013-06-28 02:00:00,55.7,55.7,29.94,SW,214,0.0,0.0,100,0.00,,,0.00,Wunderground v.1.12,2013-06-28 09:00:00,
2013-06-28 02:10:00,55.6,55.6,29.94,SSW,213,0.0,0.0,100,0.00,,,0.00,Wunderground v.1.12,2013-06-28 09:10:00,
2013-06-28 02:20:00,55.4,55.4,29.94,SW,214,0.0,0.0,100,0.00,,,0.00,Wunderground v.1.12,2013-06-28 09:20:00,
2013-06-28 02:30:00,55.6,55.6,29.94,SSW,213,0.0,0.0,100,0.00,,,0.00,Wunderground v.1.12,2013-06-28 09:30:00,
2013-06-28 02:40:00,55.4,55.4,29.94,SSW,213,0.0,0.0,100,0.00,,,0.00,Wunderground v.1.12,2013-06-28 09:40:00,
2013-06-28 02:50:00,55.1,55.1,29.93,SSW,213,0.0,0.0,100,0.00,,,0.00,Wunderground v.1.12,2013-06-28 09:50:00,
2013-06-28 03:00:00,55.0,55.0,29.93,SW,214,0.0,0.0,100,0.00,,,0.00,Wunderground v.1.12,2013-06-28 10:00:00,
2013-06-28 03:10:00,54.8,54.8,29.93,SW,214,0.0,0.0,100,0.00,,,0.00,Wunderground v.1.12,2013-06-28 10:10:00,
2013-06-28 03:20:00,55.0,55.0,29.93,SSW,213,0.0,0.0,100,0.00,,,0.00,Wunderground v.1.12,2013-06-28 10:20:00,
2013-06-28 03:30:00,55.3,55.3,29.93,SSW,213,0.0,0.0,100,0.00,,,0.00,Wunderground v.1.12,2013-06-28 10:30:00,
2013-06-28 03:40:00,55.1,55.1,29.93,SW,214,0.0,0.0,100,0.00,,,0.00,Wunderground v.1.12,2013-06-28 10:40:00,
2013-06-28 03:50:00,55.1,55.1,29.93,SW,214,0.0,0.0,100,0.00,,,0.00,Wunderground v.1.12,2013-06-28 10:50:00,
2013-06-28 04:00:00,55.1,55.1,29.93,SSW,213,0.0,0.0,100,0.00,,,0.00,Wunderground v.1.12,2013-06-28 11:00:00,
2013-06-28 04:10:00,54.8,54.8,29.92,SW,214,0.0,0.0,100,0.00,,,0.00,Wunderground v.1.12,2013-06-28 11:10:00,
2013-06-28 04:20:00,54.5,54.5,29.91,SW,214,0.0,0.0,100,0.00,,,0.00,Wunderground v.1.12,2013-06-28 11:20:00,
2013-06-28 04:30:00,54.5,54.5,29.91,SSW,213,0.0,0.0,100,0.00,,,0.00,Wunderground v.1.12,2013-06-28 11:30:00,
2013-06-28 04:40:00,54.2,54.2,29.91,SSW,213,0.0,0.0,100,0.00,,,0.00,Wunderground v.1.12,2013-06-28 11:40:00,
2013-06-28 04:50:00,53.9,53.9,29.91,SW,214,0.0,0.0,100,0.00,,,0.00,Wunderground v.1.12,2013-06-28 11:50:00,
2013-06-28 05:00:00,53.6,53.6,29.91,SSW,213,0.0,0.0,100,0.00,,,0.00,Wunderground v.1.12,2013-06-28 12:00:00,
2013-06-28 05:10:00,53.6,53.6,29.91,SW,214,0.0,0.0,100,0.00,,,0.00,Wunderground v.1.12,2013-06-28 12:10:00,
2013-06-28 05:20:00,53.5,53.5,29.90,SW,214,0.0,0.0,100,0.00,,,0.00,Wunderground v.1.12,2013-06-28 12:20:00,
2013-06-28 05:30:00,53.8,53.8,29.90,SSW,213,0.0,0.0,100,0.00,,,0.00,Wunderground v.1.12,2013-06-28 12:30:00,
2013-06-28 05:40:00,54.1,54.1,29.90,SW,214,0.0,0.0,100,0.00,,,0.00,Wunderground v.1.12,2013-06-28 12:40:00,
2013-06-28 05:50:00,54.4,54.4,29.90,SSW,213,0.0,0.0,100,0.00,,,0.00,Wunderground v.1.12,2013-06-28 12:50:00,
2013-06-28 06:00:00,53.9,53.9,29.90,SW,214,0.0,0.0,100,0.00,,,0.00,Wunderground v.1.12,2013-06-28 13:00:00,
2013-06-28 06:10:00,53.6,53.6,29.90,SSW,213,0.0,0.0,100,0.00,,,0.00,Wunderground v.1.12,2013-06-28 13:10:00,
2013-06-28 06:20:00,53.8,53.8,29.90,SW,214,0.0,0.0,100,0.00,,,0.00,Wunderground v.1.12,2013-06-28 13:20:00,
2013-06-28 06:30:00,54.2,54.2,29.90,SW,214,0.0,0.0,100,0.00,,,0.00,Wunderground v.1.12,2013-06-28 13:30:00,
2013-06-28 06:40:00,55.4,55.4,29.90,ESE,115,0.0,0.0,100,0.00,,,0.00,Wunderground v.1.12,2013-06-28 13:40:00,
2013-06-28 06:50:00,55.9,55.9,29.90,ESE,115,0.0,0.0,100,0.00,,,0.00,Wunderground v.1.12,2013-06-28 13:50:00,
2013-06-28 07:00:00,56.3,56.3,29.90,ESE,115,0.0,0.0,100,0.00,,,0.00,Wunderground v.1.12,2013-06-28 14:00:00,
2013-06-28 07:10:00,57.2,57.2,29.91,ESE,115,0.0,0.0,100,0.00,,,0.00,Wunderground v.1.12,2013-06-28 14:10:00,
2013-06-28 07:20:00,58.6,58.6,29.91,ESE,116,0.0,0.0,100,0.00,,,0.00,Wunderground v.1.12,2013-06-28 14:20:00,
2013-06-28 07:30:00,58.9,58.9,29.91,ESE,105,0.0,0.0,100,0.00,,,0.00,Wunderground v.1.12,2013-06-28 14:30:00,
2013-06-28 07:40:00,60.4,60.4,29.91,ESE,113,0.0,0.0,100,0.00,,,0.00,Wunderground v.1.12,2013-06-28 14:40:00,
2013-06-28 07:50:00,61.3,61.3,29.91,ESE,113,0.0,0.0,100,0.00,,,0.00,Wunderground v.1.12,2013-06-28 14:50:00,
2013-06-28 08:00:00,62.6,62.6,29.91,ESE,113,0.0,0.0,100,0.00,,,0.00,Wunderground v.1.12,2013-06-28 15:00:00,
2013-06-28 08:10:00,62.4,62.4,29.91,ESE,113,0.0,0.0,100,0.00,,,0.00,Wunderground v.1.12,2013-06-28 15:10:00,
2013-06-28 08:20:00,63.4,63.4,29.91,ESE,115,0.0,0.0,100,0.00,,,0.00,Wunderground v.1.12,2013-06-28 15:20:00,
2013-06-28 08:30:00,64.8,64.8,29.91,ESE,115,0.0,0.0,100,0.00,,,0.00,Wunderground v.1.12,2013-06-28 15:30:00,
2013-06-28 08:40:00,66.4,66.4,29.91,South,186,0.0,0.0,100,0.00,,,0.00,Wunderground v.1.12,2013-06-28 15:40:00,
2013-06-28 08:50:00,68.4,68.4,29.91,South,186,0.0,0.0,100,0.00,,,0.00,Wunderground v.1.12,2013-06-28 15:50:00,
2013-06-28 09:00:00,70.6,70.6,29.91,South,186,0.0,0.0,100,0.00,,,0.00,Wunderground v.1.12,2013-06-28 16:00:00,
2013-06-28 09:10:00,71.1,71.1,29.91,SW,229,0.0,0.0,100,0.00,,,0.00,Wunderground v.1.12,2013-06-28 16:10:00,
2013-06-28 09:20:00,73.5,73.5,29.90,SW,232,0.0,0.0,100,0.00,,,0.00,Wunderground v.1.12,2013-06-28 16:20:00,
2013-06-28 09:30:00,75.3,75.3,29.90,SW,231,0.0,0.0,100,0.00,,,0.00,Wunderground v.1.12,2013-06-28 16:30:00,
2013-06-28 09:40:00,77.0,77.0,29.89,SW,233,0.0,0.0,100,0.00,,,0.00,Wunderground v.1.12,2013-06-28 16:40:00,
2013-06-28 09:50:00,79.0,79.0,29.89,SSW,200,0.0,0.0,100,0.00,,,0.00,Wunderground v.1.12,2013-06-28 16:50:00,
2013-06-28 10:00:00,81.8,81.8,29.89,SW,227,0.0,0.0,100,0.00,,,0.00,Wunderground v.1.12,2013-06-28 17:00:00,
2013-06-28 10:10:00,83.4,83.4,29.89,SW,221,0.0,0.0,100,0.00,,,0.00,Wunderground v.1.12,2013-06-28 17:10:00,
2013-06-28 10:20:00,84.7,84.7,29.88,South,184,0.0,1.0,100,0.00,,,0.00,Wunderground v.1.12,2013-06-28 17:20:00,
2013-06-28 10:30:00,86.1,86.1,29.88,WNW,294,0.0,1.0,100,0.00,,,0.00,Wunderground v.1.12,2013-06-28 17:30:00,
2013-06-28 10:40:00,87.6,87.6,29.88,WNW,290,0.0,0.0,100,0.00,,,0.00,Wunderground v.1.12,2013-06-28 17:40:00,
2013-06-28 10:50:00,88.0,88.0,29.88,NW,319,1.0,1.0,100,0.00,,,0.00,Wunderground v.1.12,2013-06-28 17:50:00,
2013-06-28 11:00:00,89.0,89.0,29.88,WNW,287,0.0,2.0,100,0.00,,,0.00,Wunderground v.1.12,2013-06-28 18:00:00,
2013-06-28 11:10:00,89.5,89.5,29.88,West,264,2.0,2.0,100,0.00,,,0.00,Wunderground v.1.12,2013-06-28 18:10:00,
2013-06-28 11:20:00,90.3,90.3,29.88,WSW,237,2.0,2.0,100,0.00,,,0.00,Wunderground v.1.12,2013-06-28 18:20:00,
2013-06-28 11:30:00,90.5,90.5,29.88,SW,227,2.0,2.0,100,0.00,,,0.00,Wunderground v.1.12,2013-06-28 18:30:00,
2013-06-28 11:40:00,91.0,91.0,29.88,SSW,200,2.0,2.0,100,0.00,,,0.00,Wunderground v.1.12,2013-06-28 18:40:00,
2013-06-28 11:50:00,91.2,91.2,29.88,SSE,157,3.0,6.0,100,0.00,,,0.00,Wunderground v.1.12,2013-06-28 18:50:00,
2013-06-28 12:00:00,92.1,92.1,29.88,SSW,209,2.0,2.0,100,0.00,,,0.00,Wunderground v.1.12,2013-06-28 19:00:00,
2013-06-28 12:10:00,92.1,92.1,29.88,SW,216,4.0,4.0,100,0.00,,,0.00,Wunderground v.1.12,2013-06-28 19:10:00,
2013-06-28 12:20:00,92.1,92.1,29.88,WSW,244,3.0,6.0,100,0.00,,,0.00,Wunderground v.1.12,2013-06-28 19:20:00,
2013-06-28 12:30:00,90.7,90.7,29.88,SW,232,5.0,5.0,100,0.00,,,0.00,Wunderground v.1.12,2013-06-28 19:30:00,
2013-06-28 12:40:00,91.0,91.0,29.88,NW,312,3.0,4.0,100,0.00,,,0.00,Wunderground v.1.12,2013-06-28 19:40:00,
2013-06-28 12:50:00,90.7,90.7,29.88,WSW,240,3.0,3.0,100,0.00,,,0.00,Wunderground v.1.12,2013-06-28 19:50:00,
2013-06-28 13:00:00,91.0,91.0,29.88,WSW,250,2.0,5.0,100,0.00,,,0.00,Wunderground v.1.12,2013-06-28 20:00:00,
2013-06-28 13:10:00,88.8,88.8,29.88,West,264,5.0,5.0,100,0.00,,,0.00,Wunderground v.1.12,2013-06-28 20:10:00,
2013-06-28 13:20:00,88.8,88.8,29.88,SSW,196,4.0,4.0,100,0.00,,,0.00,Wunderground v.1.12,2013-06-28 20:20:00,
2013-06-28 13:30:00,89.3,89.3,29.88,WNW,291,3.0,3.0,100,0.00,,,0.00,Wunderground v.1.12,2013-06-28 20:30:00,
2013-06-28 13:40:00,88.2,88.2,29.88,SSW,207,4.0,8.0,100,0.00,,,0.00,Wunderground v.1.12,2013-06-28 20:40:00,
2013-06-28 13:50:00,87.6,87.6,29.88,SSW,202,5.0,5.0,100,0.00,,,0.00,Wunderground v.1.12,2013-06-28 20:50:00,
2013-06-28 14:00:00,86.7,86.7,29.88,SW,223,4.0,4.0,100,0.00,,,0.00,Wunderground v.1.12,2013-06-28 21:00:00,
2013-06-28 14:10:00,86.1,86.1,29.88,SSW,204,4.0,4.0,100,0.00,,,0.00,Wunderground v.1.12,2013-06-28 21:10:00,
2013-06-28 14:20:00,86.1,86.1,29.87,WSW,253,3.0,3.0,100,0.00,,,0.00,Wunderground v.1.12,2013-06-28 21:20:00,
2013-06-28 14:30:00,87.0,87.0,29.87,SSW,192,4.0,8.0,100,0.00,,,0.00,Wunderground v.1.12,2013-06-28 21:30:00,
2013-06-28 14:40:00,88.0,88.0,29.86,SSE,163,3.0,4.0,100,0.00,,,0.00,Wunderground v.1.12,2013-06-28 21:40:00,
2013-06-28 14:50:00,88.6,88.6,29.86,South,191,3.0,3.0,100,0.00,,,0.00,Wunderground v.1.12,2013-06-28 21:50:00,
2013-06-28 15:00:00,89.0,89.0,29.86,SSW,194,3.0,4.0,100,0.00,,,0.00,Wunderground v.1.12,2013-06-28 22:00:00,
2013-06-28 15:10:00,90.5,90.5,29.86,SSW,207,1.0,1.0,100,0.00,,,0.00,Wunderground v.1.12,2013-06-28 22:10:00,
2013-06-28 15:20:00,89.0,89.0,29.86,SSW,194,2.0,2.0,100,0.00,,,0.00,Wunderground v.1.12,2013-06-28 22:20:00,
2013-06-28 15:30:00,89.7,89.7,29.86,WNW,292,1.0,5.0,100,0.00,,,0.00,Wunderground v.1.12,2013-06-28 22:30:00,
2013-06-28 15:40:00,88.8,88.8,29.86,NW,309,2.0,3.0,100,0.00,,,0.00,Wunderground v.1.12,2013-06-28 22:40:00,
2013-06-28 15:50:00,87.6,87.6,29.85,WNW,303,2.0,5.0,100,0.00,,,0.00,Wunderground v.1.12,2013-06-28 22:50:00,
2013-06-28 16:00:00,87.4,87.4,29.85,West,261,2.0,5.0,100,0.00,,,0.00,Wunderground v.1.12,2013-06-28 23:00:00,
2013-06-28 16:10:00,85.7,85.7,29.85,SW,215,3.0,3.0,100,0.00,,,0.00,Wunderground v.1.12,2013-06-28 23:10:00,
2013-06-28 16:20:00,85.9,85.9,29.84,SW,224,2.0,2.0,100,0.00,,,0.00,Wunderground v.1.12,2013-06-28 23:20:00,
2013-06-28 16:30:00,84.7,84.7,29.84,SSW,210,3.0,4.0,100,0.00,,,0.00,Wunderground v.1.12,2013-06-28 23:30:00,
2013-06-28 16:40:00,83.8,83.8,29.83,SSW,192,4.0,4.0,100,0.00,,,0.00,Wunderground v.1.12,2013-06-28 23:40:00,
2013-06-28 16:50:00,84.3,84.3,29.83,SSW,194,2.0,2.0,100,0.00,,,0.00,Wunderground v.1.12,2013-06-28 23:50:00,
2013-06-28 17:00:00,85.7,85.7,29.83,SSW,210,1.0,1.0,100,0.00,,,0.00,Wunderground v.1.12,2013-06-29 00:00:00,
2013-06-28 17:10:00,85.5,85.5,29.83,West,269,1.0,1.0,100,0.00,,,0.00,Wunderground v.1.12,2013-06-29 00:10:00,
2013-06-28 17:20:00,85.1,85.1,29.82,South,188,1.0,1.0,100,0.00,,,0.00,Wunderground v.1.12,2013-06-29 00:20:00,
2013-06-28 17:30:00,83.0,83.0,29.82,WSW,252,3.0,4.0,100,0.00,,,0.00,Wunderground v.1.12,2013-06-29 00:30:00,
2013-06-28 17:40:00,83.4,83.4,29.82,SW,234,2.0,2.0,100,0.00,,,0.00,Wunderground v.1.12,2013-06-29 00:40:00,
2013-06-28 17:50:00,83.2,83.2,29.82,NNW,331,3.0,3.0,100,0.00,,,0.00,Wunderground v.1.12,2013-06-29 00:50:00,
2013-06-28 18:00:00,81.8,81.8,29.82,WSW,255,3.0,4.0,100,0.00,,,0.00,Wunderground v.1.12,2013-06-29 01:00:00,
2013-06-28 18:10:00,81.2,81.2,29.82,SW,220,2.0,2.0,100,0.00,,,0.00,Wunderground v.1.12,2013-06-29 01:10:00,
2013-06-28 18:20:00,81.2,81.2,29.82,SW,220,3.0,3.0,100,0.00,,,0.00,Wunderground v.1.12,2013-06-29 01:20:00,
2013-06-28 18:30:00,80.1,80.1,29.82,SSW,202,2.0,2.0,100,0.00,,,0.00,Wunderground v.1.12,2013-06-29 01:30:00,
2013-06-28 18:40:00,79.4,79.4,29.82,SW,218,3.0,6.0,100,0.00,,,0.00,Wunderground v.1.12,2013-06-29 01:40:00,
2013-06-28 18:50:00,79.2,79.2,29.82,SSW,202,2.0,2.0,100,0.00,,,0.00,Wunderground v.1.12,2013-06-29 01:50:00,
2013-06-28 19:00:00,79.0,79.0,29.82,SSW,202,1.0,1.0,100,0.00,,,0.00,Wunderground v.1.12,2013-06-29 02:00:00,
2013-06-28 19:10:00,79.9,79.9,29.82,WNW,294,0.0,0.0,100,0.00,,,0.00,Wunderground v.1.12,2013-06-29 02:10:00,
2013-06-28 19:20:00,79.8,79.8,29.82,WNW,283,0.0,1.0,100,0.00,,,0.00,Wunderground v.1.12,2013-06-29 02:20:00,
2013-06-28 19:30:00,78.3,78.3,29.82,WNW,293,0.0,0.0,100,0.00,,,0.00,Wunderground v.1.12,2013-06-29 02:30:00,
2013-06-28 19:40:00,76.1,76.1,29.83,NW,318,1.0,1.0,100,0.00,,,0.00,Wunderground v.1.12,2013-06-29 02:40:00,
2013-06-28 19:50:00,74.7,74.7,29.83,WNW,286,0.0,2.0,100,0.00,,,0.00,Wunderground v.1.12,2013-06-29 02:50:00,
2013-06-28 20:00:00,73.5,73.5,29.83,WNW,296,0.0,0.0,100,0.00,,,0.00,Wunderground v.1.12,2013-06-29 03:00:00,
2013-06-28 20:10:00,72.7,72.7,29.83,WNW,286,0.0,0.0,100,0.00,,,0.00,Wunderground v.1.12,2013-06-29 03:10:00,
2013-06-28 20:20:00,72.0,72.0,29.83,WNW,285,0.0,0.0,100,0.00,,,0.00,Wunderground v.1.12,2013-06-29 03:20:00,
2013-06-28 20:30:00,70.9,70.9,29.83,WNW,285,0.0,0.0,100,0.00,,,0.00,Wunderground v.1.12,2013-06-29 03:30:00,
2013-06-28 20:40:00,69.9,69.9,29.84,NNE,16,0.0,2.0,100,0.00,,,0.00,Wunderground v.1.12,2013-06-29 03:40:00,
2013-06-28 20:50:00,69.3,69.3,29.84,North,11,2.0,3.0,100,0.00,,,0.00,Wunderground v.1.12,2013-06-29 03:50:00,
2013-06-28 21:00:00,68.6,68.6,29.84,NNE,25,3.0,3.0,100,0.00,,,0.00,Wunderground v.1.12,2013-06-29 04:00:00,
2013-06-28 21:03:00,68.6,68.6,29.84,NNE,22,3.0,5.0,100,0.00,,,-99.99,WeatherLink 5.8.2,2013-06-29 04:03:00,
2013-06-28 21:10:00,67.9,67.9,29.84,NNE,23,2.0,2.0,100,0.00,,,0.00,Wunderground v.1.12,2013-06-29 04:10:00,
2013-06-28 21:20:00,66.9,66.9,29.85,NNE,16,3.0,4.0,100,0.00,,,0.00,Wunderground v.1.12,2013-06-29 04:20:00,
2013-06-28 21:23:00,66.9,66.9,29.85,NNE,22,3.0,5.0,100,0.00,,,-99.99,WeatherLink 5.8.2,2013-06-29 04:23:00,
2013-06-28 21:30:00,66.3,66.3,29.85,NNE,16,2.0,2.0,100,0.00,,,0.00,Wunderground v.1.12,2013-06-29 04:30:00,
2013-06-28 21:40:00,65.5,65.5,29.85,NNE,16,0.0,0.0,100,0.00,,,0.00,Wunderground v.1.12,2013-06-29 04:40:00,
2013-06-28 21:50:00,64.3,64.3,29.85,NNE,16,0.0,0.0,100,0.00,,,0.00,Wunderground v.1.12,2013-06-29 04:50:00,
2013-06-28 22:00:00,63.7,63.7,29.85,NNE,16,0.0,0.0,100,0.00,,,0.00,Wunderground v.1.12,2013-06-29 05:00:00,
2013-06-28 22:10:00,63.2,63.2,29.86,NNE,16,1.0,1.0,100,0.00,,,0.00,Wunderground v.1.12,2013-06-29 05:10:00,
2013-06-28 22:20:00,62.7,62.7,29.86,NNE,16,0.0,0.0,100,0.00,,,0.00,Wunderground v.1.12,2013-06-29 05:20:00,
2013-06-28 22:30:00,62.3,62.3,29.86,NNE,16,0.0,0.0,100,0.00,,,0.00,Wunderground v.1.12,2013-06-29 05:30:00,
2013-06-28 22:40:00,62.0,62.0,29.86,NNE,16,0.0,0.0,100,0.00,,,0.00,Wunderground v.1.12,2013-06-29 05:40:00,
2013-06-28 22:50:00,61.2,61.2,29.86,NNE,16,0.0,0.0,100,0.00,,,0.00,Wunderground v.1.12,2013-06-29 05:50:00,
2013-06-28 23:00:00,60.7,60.7,29.86,NNE,16,0.0,0.0,100,0.00,,,0.00,Wunderground v.1.12,2013-06-29 06:00:00,
2013-06-28 23:10:00,60.2,60.2,29.86,NNE,16,0.0,0.0,100,0.00,,,0.00,Wunderground v.1.12,2013-06-29 06:10:00,
2013-06-28 23:20:00,59.8,59.8,29.86,NNE,16,0.0,0.0,100,0.00,,,0.00,Wunderground v.1.12,2013-06-29 06:20:00,
2013-06-28 23:30:00,59.5,59.5,29.86,NNE,16,0.0,0.0,100,0.00,,,0.00,Wunderground v.1.12,2013-06-29 06:30:00,
2013-06-28 23:40:00,59.3,59.3,29.86,NNE,16,0.0,0.0,100,0.00,,,0.00,Wunderground v.1.12,2013-06-29 06:40:00,
2013-06-28 23:50:00,59.2,59.2,29.86,NNE,16,0.0,0.0,100,0.00,,,0.00,Wunderground v.1.12,2013-06-29 06:50:00,